sensor_id;sensor_type;location;lat;lon;timestamp;P1;durP1;ratioP1;P2;durP2;ratioP2
8656;SDS011;4366;50.764;7.184;2022-10-31T04:32:41;9.53;;;4.87;;
8656;SDS011;4366;50.764;7.184;2022-10-31T04:37:43;8.07;;;4.27;;
8656;SDS011;4366;50.764;7.184;2022-10-31T04:42:45;4.70;;;3.90;;
8656;SDS011;4366;50.764;7.184;2022-10-31T04:47:49;6.93;;;5.00;;
8656;SDS011;4366;50.764;7.184;2022-10-31T04:52:51;4.67;;;4.03;;
8656;SDS011;4366;50.764;7.184;2022-10-31T04:57:58;7.10;;;4.50;;
8656;SDS011;4366;50.764;7.184;2022-10-31T05:03:01;4.30;;;3.90;;
8656;SDS011;4366;50.764;7.184;2022-10-31T05:08:03;6.33;;;4.20;;
8656;SDS011;4366;50.764;7.184;2022-10-31T05:13:06;8.17;;;4.37;;
8656;SDS011;4366;50.764;7.184;2022-10-31T05:18:40;7.93;;;4.30;;
8656;SDS011;4366;50.764;7.184;2022-10-31T05:23:44;5.33;;;4.60;;
8656;SDS011;4366;50.764;7.184;2022-10-31T05:28:49;5.60;;;3.97;;
8656;SDS011;4366;50.764;7.184;2022-10-31T05:33:51;5.93;;;4.00;;
8656;SDS011;4366;50.764;7.184;2022-10-31T05:39:19;5.07;;;4.20;;
8656;SDS011;4366;50.764;7.184;2022-10-31T05:44:23;7.23;;;4.13;;
8656;SDS011;4366;50.764;7.184;2022-10-31T05:49:44;4.73;;;4.13;;
8656;SDS011;4366;50.764;7.184;2022-10-31T05:55:06;4.87;;;3.87;;
8656;SDS011;4366;50.764;7.184;2022-10-31T06:00:08;5.33;;;3.80;;
8656;SDS011;4366;50.764;7.184;2022-10-31T06:05:21;6.60;;;4.17;;
8656;SDS011;4366;50.764;7.184;2022-10-31T06:10:23;8.30;;;4.77;;
8656;SDS011;4366;50.764;7.184;2022-10-31T06:15:28;5.70;;;4.40;;
8656;SDS011;4366;50.764;7.184;2022-10-31T06:20:31;7.63;;;4.77;;
8656;SDS011;4366;50.764;7.184;2022-10-31T06:25:36;6.47;;;3.90;;
8656;SDS011;4366;50.764;7.184;2022-10-31T06:30:39;4.87;;;3.90;;
8656;SDS011;4366;50.764;7.184;2022-10-31T06:35:44;4.37;;;3.93;;
8656;SDS011;4366;50.764;7.184;2022-10-31T06:40:47;5.33;;;4.13;;
8656;SDS011;4366;50.764;7.184;2022-10-31T06:45:54;5.03;;;3.90;;
8656;SDS011;4366;50.764;7.184;2022-10-31T06:51:00;7.50;;;4.70;;
8656;SDS011;4366;50.764;7.184;2022-10-31T06:56:02;5.83;;;4.20;;
8656;SDS011;4366;50.764;7.184;2022-10-31T07:01:09;7.50;;;4.83;;
8656;SDS011;4366;50.764;7.184;2022-10-31T07:06:11;8.43;;;4.77;;
8656;SDS011;4366;50.764;7.184;2022-10-31T07:11:13;5.80;;;4.43;;
8656;SDS011;4366;50.764;7.184;2022-10-31T07:16:15;5.43;;;4.40;;
8656;SDS011;4366;50.764;7.184;2022-10-31T07:21:18;6.67;;;4.37;;
8656;SDS011;4366;50.764;7.184;2022-10-31T10:34:37;9.60;;;4.10;;
8656;SDS011;4366;50.764;7.184;2022-10-31T10:39:45;6.23;;;4.87;;
8656;SDS011;4366;50.764;7.184;2022-10-31T10:44:49;6.50;;;3.80;;
8656;SDS011;4366;50.764;7.184;2022-10-31T10:50:12;5.10;;;4.20;;
8656;SDS011;4366;50.764;7.184;2022-10-31T10:55:26;7.83;;;4.57;;
8656;SDS011;4366;50.764;7.184;2022-10-31T11:00:38;6.63;;;4.03;;
8656;SDS011;4366;50.764;7.184;2022-10-31T11:16:28;8.30;;;3.77;;
8656;SDS011;4366;50.764;7.184;2022-10-31T11:21:40;7.60;;;4.03;;
8656;SDS011;4366;50.764;7.184;2022-10-31T11:26:42;6.77;;;3.90;;
8656;SDS011;4366;50.764;7.184;2022-10-31T11:31:45;7.17;;;4.00;;
8656;SDS011;4366;50.764;7.184;2022-10-31T11:36:48;8.43;;;4.03;;
8656;SDS011;4366;50.764;7.184;2022-10-31T11:41:51;5.00;;;3.60;;
8656;SDS011;4366;50.764;7.184;2022-10-31T11:47:12;6.37;;;3.77;;
8656;SDS011;4366;50.764;7.184;2022-10-31T11:52:17;4.60;;;3.20;;
8656;SDS011;4366;50.764;7.184;2022-10-31T12:02:35;4.53;;;3.27;;
8656;SDS011;4366;50.764;7.184;2022-10-31T12:07:36;6.77;;;3.47;;
8656;SDS011;4366;50.764;7.184;2022-10-31T12:23:04;6.90;;;3.23;;
8656;SDS011;4366;50.764;7.184;2022-10-31T12:33:47;4.77;;;3.50;;
8656;SDS011;4366;50.764;7.184;2022-10-31T13:06:17;7.87;;;3.20;;
8656;SDS011;4366;50.764;7.184;2022-10-31T13:11:28;4.57;;;2.97;;
8656;SDS011;4366;50.764;7.184;2022-10-31T13:16:37;5.00;;;3.17;;
8656;SDS011;4366;50.764;7.184;2022-10-31T13:26:55;4.27;;;3.03;;
8656;SDS011;4366;50.764;7.184;2022-10-31T13:31:59;5.53;;;3.60;;
8656;SDS011;4366;50.764;7.184;2022-10-31T13:37:14;4.53;;;3.37;;
8656;SDS011;4366;50.764;7.184;2022-10-31T13:42:29;6.63;;;3.20;;
8656;SDS011;4366;50.764;7.184;2022-10-31T13:47:40;7.63;;;3.30;;
8656;SDS011;4366;50.764;7.184;2022-10-31T13:52:43;8.23;;;3.00;;
8656;SDS011;4366;50.764;7.184;2022-10-31T13:57:45;3.17;;;2.87;;
8656;SDS011;4366;50.764;7.184;2022-10-31T14:02:53;5.00;;;3.73;;
8656;SDS011;4366;50.764;7.184;2022-10-31T14:07:57;4.93;;;2.93;;
8656;SDS011;4366;50.764;7.184;2022-10-31T14:18:31;9.17;;;2.97;;
8656;SDS011;4366;50.764;7.184;2022-10-31T14:23:38;7.03;;;2.77;;
8656;SDS011;4366;50.764;7.184;2022-10-31T14:28:47;7.13;;;3.00;;
8656;SDS011;4366;50.764;7.184;2022-10-31T14:33:50;13.67;;;3.40;;
8656;SDS011;4366;50.764;7.184;2022-10-31T14:44:24;4.80;;;3.40;;
8656;SDS011;4366;50.764;7.184;2022-10-31T14:55:09;5.37;;;2.90;;
8656;SDS011;4366;50.764;7.184;2022-10-31T15:00:15;5.10;;;2.93;;
8656;SDS011;4366;50.764;7.184;2022-10-31T15:05:19;3.50;;;2.70;;
8656;SDS011;4366;50.764;7.184;2022-10-31T15:10:25;5.57;;;2.90;;
8656;SDS011;4366;50.764;7.184;2022-10-31T15:15:34;5.93;;;2.90;;
8656;SDS011;4366;50.764;7.184;2022-10-31T15:20:37;8.97;;;3.27;;
8656;SDS011;4366;50.764;7.184;2022-10-31T15:25:45;5.00;;;3.07;;
8656;SDS011;4366;50.764;7.184;2022-10-31T15:30:51;7.43;;;2.87;;
8656;SDS011;4366;50.764;7.184;2022-10-31T15:35:55;5.00;;;2.93;;
8656;SDS011;4366;50.764;7.184;2022-10-31T15:46:00;4.17;;;2.90;;
8656;SDS011;4366;50.764;7.184;2022-10-31T15:51:03;6.07;;;3.53;;
8656;SDS011;4366;50.764;7.184;2022-10-31T15:56:07;4.40;;;2.80;;
8656;SDS011;4366;50.764;7.184;2022-10-31T16:01:30;8.53;;;2.90;;
8656;SDS011;4366;50.764;7.184;2022-10-31T16:06:33;4.60;;;3.00;;
8656;SDS011;4366;50.764;7.184;2022-10-31T16:11:36;9.70;;;3.00;;
8656;SDS011;4366;50.764;7.184;2022-10-31T16:16:42;8.07;;;2.60;;
8656;SDS011;4366;50.764;7.184;2022-10-31T16:21:48;5.63;;;2.70;;
8656;SDS011;4366;50.764;7.184;2022-10-31T16:26:54;4.43;;;3.00;;
8656;SDS011;4366;50.764;7.184;2022-10-31T16:32:02;6.33;;;3.27;;
8656;SDS011;4366;50.764;7.184;2022-10-31T16:37:03;4.03;;;3.30;;
8656;SDS011;4366;50.764;7.184;2022-10-31T16:42:07;7.40;;;3.53;;
8656;SDS011;4366;50.764;7.184;2022-10-31T16:47:16;7.30;;;4.00;;
8656;SDS011;4366;50.764;7.184;2022-10-31T16:52:18;4.83;;;3.20;;
8656;SDS011;4366;50.764;7.184;2022-10-31T16:57:22;6.03;;;2.97;;
8656;SDS011;4366;50.764;7.184;2022-10-31T17:02:28;8.57;;;3.00;;
8656;SDS011;4366;50.764;7.184;2022-10-31T17:07:30;8.37;;;3.40;;
8656;SDS011;4366;50.764;7.184;2022-10-31T17:12:31;4.57;;;3.23;;
8656;SDS011;4366;50.764;7.184;2022-10-31T17:17:33;5.90;;;3.00;;
8656;SDS011;4366;50.764;7.184;2022-10-31T17:22:34;6.03;;;3.00;;
8656;SDS011;4366;50.764;7.184;2022-10-31T17:27:36;4.87;;;3.40;;
8656;SDS011;4366;50.764;7.184;2022-10-31T17:32:39;5.40;;;3.33;;
8656;SDS011;4366;50.764;7.184;2022-10-31T17:37:42;5.87;;;3.40;;
8656;SDS011;4366;50.764;7.184;2022-10-31T17:42:48;3.80;;;3.23;;
8656;SDS011;4366;50.764;7.184;2022-10-31T17:47:54;4.67;;;3.50;;
8656;SDS011;4366;50.764;7.184;2022-10-31T17:52:56;6.70;;;3.40;;
8656;SDS011;4366;50.764;7.184;2022-10-31T17:58:06;5.27;;;3.37;;
8656;SDS011;4366;50.764;7.184;2022-10-31T18:03:19;4.87;;;3.63;;
8656;SDS011;4366;50.764;7.184;2022-10-31T18:08:30;7.53;;;3.80;;
8656;SDS011;4366;50.764;7.184;2022-10-31T18:13:34;6.17;;;3.67;;
8656;SDS011;4366;50.764;7.184;2022-10-31T18:18:37;7.00;;;3.60;;
8656;SDS011;4366;50.764;7.184;2022-10-31T18:23:39;6.30;;;3.60;;
8656;SDS011;4366;50.764;7.184;2022-10-31T18:28:41;6.90;;;3.77;;
8656;SDS011;4366;50.764;7.184;2022-10-31T18:33:43;8.50;;;3.90;;
8656;SDS011;4366;50.764;7.184;2022-10-31T18:38:45;6.13;;;3.83;;
8656;SDS011;4366;50.764;7.184;2022-10-31T18:43:47;10.63;;;4.00;;
8656;SDS011;4366;50.764;7.184;2022-10-31T18:48:49;7.27;;;3.60;;
8656;SDS011;4366;50.764;7.184;2022-10-31T18:53:51;5.47;;;3.23;;
8656;SDS011;4366;50.764;7.184;2022-10-31T18:58:54;6.07;;;3.83;;
8656;SDS011;4366;50.764;7.184;2022-10-31T19:03:56;9.63;;;3.63;;
8656;SDS011;4366;50.764;7.184;2022-10-31T19:09:03;7.87;;;3.70;;
8656;SDS011;4366;50.764;7.184;2022-10-31T19:14:06;5.53;;;3.60;;
8656;SDS011;4366;50.764;7.184;2022-10-31T19:19:08;5.57;;;3.60;;
8656;SDS011;4366;50.764;7.184;2022-10-31T19:24:10;6.40;;;3.60;;
8656;SDS011;4366;50.764;7.184;2022-10-31T19:29:12;6.70;;;3.70;;
8656;SDS011;4366;50.764;7.184;2022-10-31T19:34:13;6.97;;;3.73;;
8656;SDS011;4366;50.764;7.184;2022-10-31T19:39:15;6.63;;;3.60;;
8656;SDS011;4366;50.764;7.184;2022-10-31T19:44:16;4.90;;;3.70;;
8656;SDS011;4366;50.764;7.184;2022-10-31T19:49:18;5.73;;;3.73;;
8656;SDS011;4366;50.764;7.184;2022-10-31T19:54:20;8.97;;;4.07;;
8656;SDS011;4366;50.764;7.184;2022-10-31T19:59:21;5.70;;;3.90;;
8656;SDS011;4366;50.764;7.184;2022-10-31T20:04:24;4.60;;;3.50;;
8656;SDS011;4366;50.764;7.184;2022-10-31T20:09:25;8.67;;;3.77;;
8656;SDS011;4366;50.764;7.184;2022-10-31T20:14:27;5.40;;;4.00;;
8656;SDS011;4366;50.764;7.184;2022-10-31T20:19:29;4.53;;;3.77;;
8656;SDS011;4366;50.764;7.184;2022-10-31T20:24:31;4.57;;;3.30;;
8656;SDS011;4366;50.764;7.184;2022-10-31T20:29:33;5.33;;;3.70;;
8656;SDS011;4366;50.764;7.184;2022-10-31T20:34:35;5.50;;;4.00;;
8656;SDS011;4366;50.764;7.184;2022-10-31T20:39:36;4.60;;;3.53;;
8656;SDS011;4366;50.764;7.184;2022-10-31T20:44:41;6.57;;;3.40;;
8656;SDS011;4366;50.764;7.184;2022-10-31T20:49:43;5.47;;;3.67;;
8656;SDS011;4366;50.764;7.184;2022-10-31T20:54:44;9.50;;;3.93;;
8656;SDS011;4366;50.764;7.184;2022-10-31T20:59:46;9.17;;;3.43;;
8656;SDS011;4366;50.764;7.184;2022-10-31T21:04:48;8.27;;;3.37;;
8656;SDS011;4366;50.764;7.184;2022-10-31T21:09:49;6.37;;;3.27;;
8656;SDS011;4366;50.764;7.184;2022-10-31T21:14:51;6.03;;;3.27;;
8656;SDS011;4366;50.764;7.184;2022-10-31T21:19:53;5.63;;;3.57;;
8656;SDS011;4366;50.764;7.184;2022-10-31T21:24:55;6.60;;;3.57;;
8656;SDS011;4366;50.764;7.184;2022-10-31T21:29:57;6.07;;;3.60;;
8656;SDS011;4366;50.764;7.184;2022-10-31T21:34:58;6.13;;;3.73;;
8656;SDS011;4366;50.764;7.184;2022-10-31T21:40:00;6.53;;;3.47;;
8656;SDS011;4366;50.764;7.184;2022-10-31T21:45:02;4.93;;;2.77;;
8656;SDS011;4366;50.764;7.184;2022-10-31T21:50:04;4.70;;;2.80;;
8656;SDS011;4366;50.764;7.184;2022-10-31T21:55:06;6.23;;;3.57;;
8656;SDS011;4366;50.764;7.184;2022-10-31T22:00:08;3.57;;;2.90;;
8656;SDS011;4366;50.764;7.184;2022-10-31T22:05:10;5.20;;;3.00;;
8656;SDS011;4366;50.764;7.184;2022-10-31T22:10:12;3.27;;;2.90;;
8656;SDS011;4366;50.764;7.184;2022-10-31T22:15:14;5.30;;;3.10;;
8656;SDS011;4366;50.764;7.184;2022-10-31T22:20:15;7.90;;;3.30;;
8656;SDS011;4366;50.764;7.184;2022-10-31T22:25:17;6.23;;;3.77;;
8656;SDS011;4366;50.764;7.184;2022-10-31T22:30:19;6.20;;;3.73;;
8656;SDS011;4366;50.764;7.184;2022-10-31T22:35:20;7.27;;;3.20;;
8656;SDS011;4366;50.764;7.184;2022-10-31T22:40:22;4.30;;;3.00;;
8656;SDS011;4366;50.764;7.184;2022-10-31T22:45:24;6.43;;;3.70;;
8656;SDS011;4366;50.764;7.184;2022-10-31T22:50:26;6.30;;;3.37;;
8656;SDS011;4366;50.764;7.184;2022-10-31T22:55:27;4.63;;;3.50;;
8656;SDS011;4366;50.764;7.184;2022-10-31T23:00:29;4.03;;;2.67;;
8656;SDS011;4366;50.764;7.184;2022-10-31T23:05:30;3.40;;;3.10;;
8656;SDS011;4366;50.764;7.184;2022-10-31T23:10:32;5.73;;;3.17;;
8656;SDS011;4366;50.764;7.184;2022-10-31T23:15:36;5.40;;;2.83;;
8656;SDS011;4366;50.764;7.184;2022-10-31T23:20:38;3.57;;;2.80;;
8656;SDS011;4366;50.764;7.184;2022-10-31T23:25:44;4.30;;;2.83;;
8656;SDS011;4366;50.764;7.184;2022-10-31T23:31:04;2.73;;;2.23;;
8656;SDS011;4366;50.764;7.184;2022-10-31T23:36:06;5.33;;;2.70;;
8656;SDS011;4366;50.764;7.184;2022-10-31T23:41:08;6.93;;;2.27;;
8656;SDS011;4366;50.764;7.184;2022-10-31T23:46:10;4.20;;;2.63;;
8656;SDS011;4366;50.764;7.184;2022-10-31T23:51:12;8.00;;;3.50;;
8656;SDS011;4366;50.764;7.184;2022-10-31T23:56:14;4.17;;;2.60;;
